sensor_id;sensor_type;location;lat;lon;timestamp;temperature;humidity
52295;DHT22;38243;53.212;6.574;2023-05-07T00:02:25;19.80;76.10
52295;DHT22;38243;53.212;6.574;2023-05-07T00:04:51;19.80;76.10
52295;DHT22;38243;53.212;6.574;2023-05-07T00:07:17;19.80;76.10
52295;DHT22;38243;53.212;6.574;2023-05-07T00:09:43;19.80;76.10
52295;DHT22;38243;53.212;6.574;2023-05-07T00:12:09;19.80;76.20
52295;DHT22;38243;53.212;6.574;2023-05-07T00:14:35;19.80;76.20
52295;DHT22;38243;53.212;6.574;2023-05-07T00:17:01;19.70;76.20
52295;DHT22;38243;53.212;6.574;2023-05-07T00:19:27;19.80;76.30
52295;DHT22;38243;53.212;6.574;2023-05-07T00:21:52;19.70;76.20
52295;DHT22;38243;53.212;6.574;2023-05-07T00:24:22;19.70;76.30
52295;DHT22;38243;53.212;6.574;2023-05-07T00:26:48;19.70;76.20
52295;DHT22;38243;53.212;6.574;2023-05-07T00:29:13;19.70;76.30
52295;DHT22;38243;53.212;6.574;2023-05-07T00:31:39;19.70;76.40
52295;DHT22;38243;53.212;6.574;2023-05-07T00:34:05;19.70;76.40
52295;DHT22;38243;53.212;6.574;2023-05-07T00:36:31;19.70;76.40
52295;DHT22;38243;53.212;6.574;2023-05-07T00:38:59;19.70;76.40
52295;DHT22;38243;53.212;6.574;2023-05-07T00:41:27;19.60;76.40
52295;DHT22;38243;53.212;6.574;2023-05-07T00:43:52;19.70;76.40
52295;DHT22;38243;53.212;6.574;2023-05-07T00:46:20;19.70;76.50
52295;DHT22;38243;53.212;6.574;2023-05-07T00:48:46;19.60;76.50
52295;DHT22;38243;53.212;6.574;2023-05-07T00:51:12;19.60;76.50
52295;DHT22;38243;53.212;6.574;2023-05-07T00:53:38;19.60;76.50
52295;DHT22;38243;53.212;6.574;2023-05-07T00:56:04;19.60;76.60
52295;DHT22;38243;53.212;6.574;2023-05-07T00:58:32;19.60;76.60
52295;DHT22;38243;53.212;6.574;2023-05-07T01:00:59;19.60;76.70
52295;DHT22;38243;53.212;6.574;2023-05-07T01:03:24;19.50;76.70
52295;DHT22;38243;53.212;6.574;2023-05-07T01:05:52;19.50;76.80
52295;DHT22;38243;53.212;6.574;2023-05-07T01:08:19;19.50;76.80
52295;DHT22;38243;53.212;6.574;2023-05-07T01:10:46;19.50;76.80
52295;DHT22;38243;53.212;6.574;2023-05-07T01:13:12;19.50;76.90
52295;DHT22;38243;53.212;6.574;2023-05-07T01:15:39;19.50;77.00
52295;DHT22;38243;53.212;6.574;2023-05-07T01:18:07;19.50;77.00
52295;DHT22;38243;53.212;6.574;2023-05-07T01:20:33;19.40;77.00
52295;DHT22;38243;53.212;6.574;2023-05-07T01:23:00;19.40;77.00
52295;DHT22;38243;53.212;6.574;2023-05-07T01:25:27;19.40;77.10
52295;DHT22;38243;53.212;6.574;2023-05-07T01:27:53;19.40;77.20
52295;DHT22;38243;53.212;6.574;2023-05-07T01:30:20;19.40;77.20
52295;DHT22;38243;53.212;6.574;2023-05-07T01:32:53;19.40;77.30
52295;DHT22;38243;53.212;6.574;2023-05-07T01:35:29;19.40;77.30
52295;DHT22;38243;53.212;6.574;2023-05-07T01:37:54;19.30;77.30
52295;DHT22;38243;53.212;6.574;2023-05-07T01:40:21;19.30;77.40
52295;DHT22;38243;53.212;6.574;2023-05-07T01:42:47;19.30;77.40
52295;DHT22;38243;53.212;6.574;2023-05-07T01:45:14;19.30;77.50
52295;DHT22;38243;53.212;6.574;2023-05-07T01:47:39;19.30;77.50
52295;DHT22;38243;53.212;6.574;2023-05-07T01:50:06;19.30;77.50
52295;DHT22;38243;53.212;6.574;2023-05-07T01:52:34;19.30;77.50
52295;DHT22;38243;53.212;6.574;2023-05-07T01:55:00;19.20;77.50
52295;DHT22;38243;53.212;6.574;2023-05-07T01:57:25;19.20;77.60
52295;DHT22;38243;53.212;6.574;2023-05-07T01:59:51;19.20;77.70
52295;DHT22;38243;53.212;6.574;2023-05-07T02:02:17;19.20;77.60
52295;DHT22;38243;53.212;6.574;2023-05-07T02:04:43;19.20;77.60
52295;DHT22;38243;53.212;6.574;2023-05-07T02:07:08;19.20;77.70
52295;DHT22;38243;53.212;6.574;2023-05-07T02:09:35;19.20;77.80
52295;DHT22;38243;53.212;6.574;2023-05-07T02:12:01;19.20;77.80
52295;DHT22;38243;53.212;6.574;2023-05-07T02:14:26;19.20;77.80
52295;DHT22;38243;53.212;6.574;2023-05-07T02:16:52;19.10;77.80
52295;DHT22;38243;53.212;6.574;2023-05-07T02:19:18;19.20;77.80
52295;DHT22;38243;53.212;6.574;2023-05-07T02:21:46;19.20;77.80
52295;DHT22;38243;53.212;6.574;2023-05-07T02:24:13;19.10;77.80
52295;DHT22;38243;53.212;6.574;2023-05-07T02:26:40;19.10;77.80
52295;DHT22;38243;53.212;6.574;2023-05-07T02:29:05;19.10;77.90
52295;DHT22;38243;53.212;6.574;2023-05-07T02:31:31;19.10;77.90
52295;DHT22;38243;53.212;6.574;2023-05-07T02:33:59;19.10;77.90
52295;DHT22;38243;53.212;6.574;2023-05-07T02:36:25;19.10;77.90
52295;DHT22;38243;53.212;6.574;2023-05-07T02:38:52;19.10;77.90
52295;DHT22;38243;53.212;6.574;2023-05-07T02:41:18;19.10;78.00
52295;DHT22;38243;53.212;6.574;2023-05-07T02:43:43;19.10;78.00
52295;DHT22;38243;53.212;6.574;2023-05-07T02:46:09;19.10;78.00
52295;DHT22;38243;53.212;6.574;2023-05-07T02:48:35;19.10;78.00
52295;DHT22;38243;53.212;6.574;2023-05-07T02:51:02;19.10;78.00
52295;DHT22;38243;53.212;6.574;2023-05-07T02:53:28;19.10;78.00
52295;DHT22;38243;53.212;6.574;2023-05-07T02:55:59;19.00;78.00
52295;DHT22;38243;53.212;6.574;2023-05-07T02:58:26;19.00;78.00
52295;DHT22;38243;53.212;6.574;2023-05-07T03:00:52;19.10;78.20
52295;DHT22;38243;53.212;6.574;2023-05-07T03:03:20;19.90;78.60
52295;DHT22;38243;53.212;6.574;2023-05-07T03:05:46;19.00;78.10
52295;DHT22;38243;53.212;6.574;2023-05-07T03:08:12;19.00;78.00
52295;DHT22;38243;53.212;6.574;2023-05-07T03:10:38;19.00;78.10
52295;DHT22;38243;53.212;6.574;2023-05-07T03:13:04;19.10;78.20
52295;DHT22;38243;53.212;6.574;2023-05-07T03:15:30;19.00;78.20
52295;DHT22;38243;53.212;6.574;2023-05-07T03:17:56;19.00;78.10
52295;DHT22;38243;53.212;6.574;2023-05-07T03:20:22;19.00;78.10
52295;DHT22;38243;53.212;6.574;2023-05-07T03:22:48;19.00;78.10
52295;DHT22;38243;53.212;6.574;2023-05-07T03:25:13;19.00;78.10
52295;DHT22;38243;53.212;6.574;2023-05-07T03:27:40;18.70;77.90
52295;DHT22;38243;53.212;6.574;2023-05-07T03:30:08;19.00;78.20
52295;DHT22;38243;53.212;6.574;2023-05-07T03:32:34;19.00;78.20
52295;DHT22;38243;53.212;6.574;2023-05-07T03:35:01;19.00;78.20
52295;DHT22;38243;53.212;6.574;2023-05-07T03:37:26;19.00;78.20
52295;DHT22;38243;53.212;6.574;2023-05-07T03:39:52;19.00;78.20
52295;DHT22;38243;53.212;6.574;2023-05-07T03:42:18;18.90;78.20
52295;DHT22;38243;53.212;6.574;2023-05-07T03:44:44;19.00;78.30
52295;DHT22;38243;53.212;6.574;2023-05-07T03:47:09;18.90;78.20
52295;DHT22;38243;53.212;6.574;2023-05-07T03:49:36;18.90;78.20
52295;DHT22;38243;53.212;6.574;2023-05-07T03:52:02;18.90;78.20
52295;DHT22;38243;53.212;6.574;2023-05-07T03:54:28;18.90;78.20
52295;DHT22;38243;53.212;6.574;2023-05-07T03:56:54;18.90;78.20
52295;DHT22;38243;53.212;6.574;2023-05-07T03:59:19;18.90;78.20
52295;DHT22;38243;53.212;6.574;2023-05-07T04:01:45;18.90;78.20
52295;DHT22;38243;53.212;6.574;2023-05-07T04:04:11;18.90;78.20
52295;DHT22;38243;53.212;6.574;2023-05-07T04:06:37;18.90;78.20
52295;DHT22;38243;53.212;6.574;2023-05-07T04:09:03;18.90;78.30
52295;DHT22;38243;53.212;6.574;2023-05-07T04:11:29;18.90;78.20
52295;DHT22;38243;53.212;6.574;2023-05-07T04:13:54;18.90;78.30
52295;DHT22;38243;53.212;6.574;2023-05-07T04:16:20;18.90;78.30
52295;DHT22;38243;53.212;6.574;2023-05-07T04:18:46;18.90;78.30
52295;DHT22;38243;53.212;6.574;2023-05-07T04:21:19;18.90;78.20
52295;DHT22;38243;53.212;6.574;2023-05-07T04:23:46;18.90;78.30
52295;DHT22;38243;53.212;6.574;2023-05-07T04:26:12;18.80;78.20
52295;DHT22;38243;53.212;6.574;2023-05-07T04:28:38;18.90;78.30
52295;DHT22;38243;53.212;6.574;2023-05-07T04:31:05;18.90;78.30
52295;DHT22;38243;53.212;6.574;2023-05-07T04:33:31;18.90;78.30
52295;DHT22;38243;53.212;6.574;2023-05-07T04:35:57;18.80;78.90
52295;DHT22;38243;53.212;6.574;2023-05-07T04:38:23;18.80;78.30
52295;DHT22;38243;53.212;6.574;2023-05-07T04:40:51;18.80;78.20
52295;DHT22;38243;53.212;6.574;2023-05-07T04:43:17;18.80;78.20
52295;DHT22;38243;53.212;6.574;2023-05-07T04:45:43;18.80;78.20
52295;DHT22;38243;53.212;6.574;2023-05-07T04:48:09;18.80;78.30
52295;DHT22;38243;53.212;6.574;2023-05-07T04:50:35;18.80;78.20
52295;DHT22;38243;53.212;6.574;2023-05-07T04:53:01;18.80;78.80
52295;DHT22;38243;53.212;6.574;2023-05-07T04:55:26;18.80;78.20
52295;DHT22;38243;53.212;6.574;2023-05-07T04:57:53;18.80;78.20
52295;DHT22;38243;53.212;6.574;2023-05-07T05:00:19;18.80;78.20
52295;DHT22;38243;53.212;6.574;2023-05-07T05:02:45;18.80;78.20
52295;DHT22;38243;53.212;6.574;2023-05-07T05:05:11;18.80;78.20
52295;DHT22;38243;53.212;6.574;2023-05-07T05:07:37;18.80;78.20
52295;DHT22;38243;53.212;6.574;2023-05-07T05:10:04;18.80;78.20
52295;DHT22;38243;53.212;6.574;2023-05-07T05:12:31;18.80;78.20
52295;DHT22;38243;53.212;6.574;2023-05-07T05:14:57;18.80;78.20
52295;DHT22;38243;53.212;6.574;2023-05-07T05:17:22;18.80;78.20
52295;DHT22;38243;53.212;6.574;2023-05-07T05:19:48;18.80;78.10
52295;DHT22;38243;53.212;6.574;2023-05-07T05:22:14;18.80;78.10
52295;DHT22;38243;53.212;6.574;2023-05-07T05:24:39;18.80;78.20
52295;DHT22;38243;53.212;6.574;2023-05-07T05:27:05;18.80;78.10
52295;DHT22;38243;53.212;6.574;2023-05-07T05:29:31;18.80;78.10
52295;DHT22;38243;53.212;6.574;2023-05-07T05:31:57;18.80;78.10
52295;DHT22;38243;53.212;6.574;2023-05-07T05:34:23;18.80;78.00
52295;DHT22;38243;53.212;6.574;2023-05-07T05:36:48;18.80;78.00
52295;DHT22;38243;53.212;6.574;2023-05-07T05:39:14;18.80;78.00
52295;DHT22;38243;53.212;6.574;2023-05-07T05:41:40;18.80;78.00
52295;DHT22;38243;53.212;6.574;2023-05-07T05:44:06;18.80;78.00
52295;DHT22;38243;53.212;6.574;2023-05-07T05:46:32;18.80;78.00
52295;DHT22;38243;53.212;6.574;2023-05-07T05:48:58;18.80;78.00
52295;DHT22;38243;53.212;6.574;2023-05-07T05:51:24;18.80;78.00
52295;DHT22;38243;53.212;6.574;2023-05-07T05:53:50;18.80;78.00
52295;DHT22;38243;53.212;6.574;2023-05-07T05:56:16;18.80;78.00
52295;DHT22;38243;53.212;6.574;2023-05-07T05:58:42;18.80;78.00
52295;DHT22;38243;53.212;6.574;2023-05-07T06:01:08;18.80;77.90
52295;DHT22;38243;53.212;6.574;2023-05-07T06:03:34;18.80;78.00
52295;DHT22;38243;53.212;6.574;2023-05-07T06:05:59;18.80;77.90
52295;DHT22;38243;53.212;6.574;2023-05-07T06:08:28;18.70;77.90
52295;DHT22;38243;53.212;6.574;2023-05-07T06:10:55;18.80;77.90
52295;DHT22;38243;53.212;6.574;2023-05-07T06:13:20;18.80;77.90
52295;DHT22;38243;53.212;6.574;2023-05-07T06:15:46;18.80;77.90
52295;DHT22;38243;53.212;6.574;2023-05-07T06:18:12;18.80;77.90
52295;DHT22;38243;53.212;6.574;2023-05-07T06:20:38;18.80;77.90
52295;DHT22;38243;53.212;6.574;2023-05-07T06:23:04;18.80;77.90
52295;DHT22;38243;53.212;6.574;2023-05-07T06:25:30;18.80;77.80
52295;DHT22;38243;53.212;6.574;2023-05-07T06:27:55;19.20;78.00
52295;DHT22;38243;53.212;6.574;2023-05-07T06:30:21;18.90;77.70
52295;DHT22;38243;53.212;6.574;2023-05-07T06:32:47;18.90;77.70
52295;DHT22;38243;53.212;6.574;2023-05-07T06:35:13;18.90;77.70
52295;DHT22;38243;53.212;6.574;2023-05-07T06:37:39;18.90;77.70
52295;DHT22;38243;53.212;6.574;2023-05-07T06:40:08;18.90;77.70
52295;DHT22;38243;53.212;6.574;2023-05-07T06:42:36;18.90;77.60
52295;DHT22;38243;53.212;6.574;2023-05-07T06:45:02;18.90;77.60
52295;DHT22;38243;53.212;6.574;2023-05-07T06:47:28;18.90;77.50
52295;DHT22;38243;53.212;6.574;2023-05-07T06:49:54;18.90;77.50
52295;DHT22;38243;53.212;6.574;2023-05-07T06:52:19;19.00;77.40
52295;DHT22;38243;53.212;6.574;2023-05-07T06:54:45;19.00;77.40
52295;DHT22;38243;53.212;6.574;2023-05-07T06:57:11;19.00;77.40
52295;DHT22;38243;53.212;6.574;2023-05-07T06:59:37;19.00;77.40
52295;DHT22;38243;53.212;6.574;2023-05-07T07:02:02;18.90;77.30
52295;DHT22;38243;53.212;6.574;2023-05-07T07:04:28;18.90;77.30
52295;DHT22;38243;53.212;6.574;2023-05-07T07:06:54;18.90;77.30
52295;DHT22;38243;53.212;6.574;2023-05-07T07:09:22;18.90;77.20
52295;DHT22;38243;53.212;6.574;2023-05-07T07:11:47;19.00;77.30
52295;DHT22;38243;53.212;6.574;2023-05-07T07:14:13;19.00;77.20
52295;DHT22;38243;53.212;6.574;2023-05-07T07:16:39;19.00;77.10
52295;DHT22;38243;53.212;6.574;2023-05-07T07:19:06;19.00;77.10
52295;DHT22;38243;53.212;6.574;2023-05-07T07:21:31;19.00;77.10
52295;DHT22;38243;53.212;6.574;2023-05-07T07:23:57;19.00;77.10
52295;DHT22;38243;53.212;6.574;2023-05-07T07:26:23;19.00;77.10
52295;DHT22;38243;53.212;6.574;2023-05-07T07:28:49;19.00;77.10
52295;DHT22;38243;53.212;6.574;2023-05-07T07:31:15;19.00;77.00
52295;DHT22;38243;53.212;6.574;2023-05-07T07:33:41;19.00;77.00
52295;DHT22;38243;53.212;6.574;2023-05-07T07:36:07;19.00;77.00
52295;DHT22;38243;53.212;6.574;2023-05-07T07:38:34;19.00;76.90
52295;DHT22;38243;53.212;6.574;2023-05-07T07:41:00;19.00;76.90
52295;DHT22;38243;53.212;6.574;2023-05-07T07:43:26;19.00;76.90
52295;DHT22;38243;53.212;6.574;2023-05-07T07:45:53;19.00;76.90
52295;DHT22;38243;53.212;6.574;2023-05-07T07:48:18;19.00;76.90
52295;DHT22;38243;53.212;6.574;2023-05-07T07:50:44;19.10;76.90
52295;DHT22;38243;53.212;6.574;2023-05-07T07:53:10;19.10;77.00
52295;DHT22;38243;53.212;6.574;2023-05-07T07:55:39;19.10;76.90
52295;DHT22;38243;53.212;6.574;2023-05-07T07:58:05;19.10;76.90
52295;DHT22;38243;53.212;6.574;2023-05-07T08:00:31;19.10;76.90
52295;DHT22;38243;53.212;6.574;2023-05-07T08:02:56;19.10;76.90
52295;DHT22;38243;53.212;6.574;2023-05-07T08:05:23;19.10;76.90
52295;DHT22;38243;53.212;6.574;2023-05-07T08:07:48;19.10;76.80
52295;DHT22;38243;53.212;6.574;2023-05-07T08:10:18;18.90;76.70
52295;DHT22;38243;53.212;6.574;2023-05-07T08:12:50;19.20;76.80
52295;DHT22;38243;53.212;6.574;2023-05-07T08:15:16;19.20;76.70
52295;DHT22;38243;53.212;6.574;2023-05-07T08:17:43;19.20;76.70
52295;DHT22;38243;53.212;6.574;2023-05-07T08:20:09;19.20;76.70
52295;DHT22;38243;53.212;6.574;2023-05-07T08:22:36;19.20;76.60
52295;DHT22;38243;53.212;6.574;2023-05-07T08:25:02;19.20;76.60
52295;DHT22;38243;53.212;6.574;2023-05-07T08:27:28;19.20;76.60
52295;DHT22;38243;53.212;6.574;2023-05-07T08:29:54;19.30;76.60
52295;DHT22;38243;53.212;6.574;2023-05-07T08:32:20;19.30;76.60
52295;DHT22;38243;53.212;6.574;2023-05-07T08:34:46;19.30;76.60
52295;DHT22;38243;53.212;6.574;2023-05-07T08:37:12;19.30;76.60
52295;DHT22;38243;53.212;6.574;2023-05-07T08:39:38;19.30;76.60
52295;DHT22;38243;53.212;6.574;2023-05-07T08:42:04;19.30;76.60
52295;DHT22;38243;53.212;6.574;2023-05-07T08:44:34;19.30;76.60
52295;DHT22;38243;53.212;6.574;2023-05-07T08:47:01;19.30;76.50
52295;DHT22;38243;53.212;6.574;2023-05-07T08:49:28;19.30;76.50
52295;DHT22;38243;53.212;6.574;2023-05-07T08:51:54;19.40;76.50
52295;DHT22;38243;53.212;6.574;2023-05-07T08:54:21;19.40;76.60
52295;DHT22;38243;53.212;6.574;2023-05-07T08:56:47;19.40;76.60
52295;DHT22;38243;53.212;6.574;2023-05-07T08:59:13;19.40;76.60
52295;DHT22;38243;53.212;6.574;2023-05-07T09:01:39;19.40;76.60
52295;DHT22;38243;53.212;6.574;2023-05-07T09:04:05;18.80;76.20
52295;DHT22;38243;53.212;6.574;2023-05-07T09:06:32;19.40;76.50
52295;DHT22;38243;53.212;6.574;2023-05-07T09:08:58;19.50;76.50
52295;DHT22;38243;53.212;6.574;2023-05-07T09:11:27;19.50;76.50
52295;DHT22;38243;53.212;6.574;2023-05-07T09:13:56;19.50;76.50
52295;DHT22;38243;53.212;6.574;2023-05-07T09:16:24;19.50;76.40
52295;DHT22;38243;53.212;6.574;2023-05-07T09:18:54;19.50;76.40
52295;DHT22;38243;53.212;6.574;2023-05-07T09:21:21;19.50;76.30
52295;DHT22;38243;53.212;6.574;2023-05-07T09:23:52;19.50;76.30
52295;DHT22;38243;53.212;6.574;2023-05-07T09:26:21;19.60;76.20
52295;DHT22;38243;53.212;6.574;2023-05-07T09:28:46;19.60;76.20
52295;DHT22;38243;53.212;6.574;2023-05-07T09:31:12;19.60;76.10
52295;DHT22;38243;53.212;6.574;2023-05-07T09:33:39;19.60;76.00
52295;DHT22;38243;53.212;6.574;2023-05-07T09:36:06;19.60;75.90
52295;DHT22;38243;53.212;6.574;2023-05-07T09:38:33;19.70;75.90
52295;DHT22;38243;53.212;6.574;2023-05-07T09:41:07;19.70;75.90
52295;DHT22;38243;53.212;6.574;2023-05-07T09:43:34;19.70;75.80
52295;DHT22;38243;53.212;6.574;2023-05-07T09:48:34;19.70;75.60
52295;DHT22;38243;53.212;6.574;2023-05-07T09:51:02;19.80;75.50
52295;DHT22;38243;53.212;6.574;2023-05-07T09:53:30;19.80;75.50
52295;DHT22;38243;53.212;6.574;2023-05-07T09:55:57;19.90;75.50
52295;DHT22;38243;53.212;6.574;2023-05-07T09:58:25;19.90;75.50
52295;DHT22;38243;53.212;6.574;2023-05-07T10:00:52;19.80;75.20
52295;DHT22;38243;53.212;6.574;2023-05-07T10:03:19;19.90;75.30
52295;DHT22;38243;53.212;6.574;2023-05-07T10:05:46;19.90;75.20
52295;DHT22;38243;53.212;6.574;2023-05-07T10:08:13;19.90;75.20
52295;DHT22;38243;53.212;6.574;2023-05-07T10:10:40;20.00;75.10
52295;DHT22;38243;53.212;6.574;2023-05-07T10:13:06;20.00;75.10
52295;DHT22;38243;53.212;6.574;2023-05-07T10:15:36;20.00;75.00
52295;DHT22;38243;53.212;6.574;2023-05-07T10:18:03;20.00;74.80
52295;DHT22;38243;53.212;6.574;2023-05-07T10:20:30;20.00;74.70
52295;DHT22;38243;53.212;6.574;2023-05-07T10:22:57;20.10;74.80
52295;DHT22;38243;53.212;6.574;2023-05-07T10:25:30;20.10;74.80
52295;DHT22;38243;53.212;6.574;2023-05-07T10:28:00;20.10;74.80
52295;DHT22;38243;53.212;6.574;2023-05-07T10:33:29;20.10;74.60
52295;DHT22;38243;53.212;6.574;2023-05-07T10:36:00;20.20;74.50
52295;DHT22;38243;53.212;6.574;2023-05-07T10:38:27;20.20;74.50
52295;DHT22;38243;53.212;6.574;2023-05-07T10:40:53;20.20;74.40
52295;DHT22;38243;53.212;6.574;2023-05-07T10:43:19;20.20;74.30
52295;DHT22;38243;53.212;6.574;2023-05-07T10:51:29;20.20;74.10
52295;DHT22;38243;53.212;6.574;2023-05-07T10:56:40;20.20;74.00
52295;DHT22;38243;53.212;6.574;2023-05-07T11:01:57;20.20;74.00
52295;DHT22;38243;53.212;6.574;2023-05-07T11:04:24;20.20;73.90
52295;DHT22;38243;53.212;6.574;2023-05-07T11:15:10;20.20;73.90
52295;DHT22;38243;53.212;6.574;2023-05-07T11:17:57;20.20;74.00
52295;DHT22;38243;53.212;6.574;2023-05-07T11:26:07;20.30;74.10
52295;DHT22;38243;53.212;6.574;2023-05-07T11:28:40;20.30;74.10
52295;DHT22;38243;53.212;6.574;2023-05-07T11:31:07;20.30;74.10
52295;DHT22;38243;53.212;6.574;2023-05-07T11:33:33;20.30;74.10
52295;DHT22;38243;53.212;6.574;2023-05-07T11:36:00;20.30;74.10
52295;DHT22;38243;53.212;6.574;2023-05-07T11:38:26;20.30;74.10
52295;DHT22;38243;53.212;6.574;2023-05-07T11:40:53;20.30;74.10
52295;DHT22;38243;53.212;6.574;2023-05-07T11:43:19;20.30;74.10
52295;DHT22;38243;53.212;6.574;2023-05-07T11:45:45;20.30;74.10
52295;DHT22;38243;53.212;6.574;2023-05-07T11:48:13;20.40;74.20
52295;DHT22;38243;53.212;6.574;2023-05-07T11:50:53;20.40;74.20
52295;DHT22;38243;53.212;6.574;2023-05-07T11:53:19;20.30;74.20
52295;DHT22;38243;53.212;6.574;2023-05-07T11:55:46;20.40;74.30
52295;DHT22;38243;53.212;6.574;2023-05-07T11:58:13;20.40;74.30
52295;DHT22;38243;53.212;6.574;2023-05-07T12:00:53;20.40;74.30
52295;DHT22;38243;53.212;6.574;2023-05-07T12:03:19;20.40;74.30
52295;DHT22;38243;53.212;6.574;2023-05-07T12:05:46;20.40;74.40
52295;DHT22;38243;53.212;6.574;2023-05-07T12:08:16;20.40;74.40
52295;DHT22;38243;53.212;6.574;2023-05-07T12:10:43;20.40;74.40
52295;DHT22;38243;53.212;6.574;2023-05-07T12:13:23;20.40;74.40
52295;DHT22;38243;53.212;6.574;2023-05-07T12:15:53;20.40;74.40
52295;DHT22;38243;53.212;6.574;2023-05-07T12:18:20;20.40;74.50
52295;DHT22;38243;53.212;6.574;2023-05-07T12:20:46;20.40;74.50
52295;DHT22;38243;53.212;6.574;2023-05-07T12:23:12;20.40;74.50
52295;DHT22;38243;53.212;6.574;2023-05-07T12:25:39;20.40;74.50
52295;DHT22;38243;53.212;6.574;2023-05-07T12:28:07;20.40;74.50
52295;DHT22;38243;53.212;6.574;2023-05-07T12:30:40;20.40;74.50
52295;DHT22;38243;53.212;6.574;2023-05-07T12:33:06;20.40;74.60
52295;DHT22;38243;53.212;6.574;2023-05-07T12:35:37;20.40;74.60
52295;DHT22;38243;53.212;6.574;2023-05-07T12:38:11;20.40;74.60
52295;DHT22;38243;53.212;6.574;2023-05-07T12:40:59;20.40;74.60
52295;DHT22;38243;53.212;6.574;2023-05-07T12:43:26;20.40;74.60
52295;DHT22;38243;53.212;6.574;2023-05-07T12:45:56;20.40;74.60
52295;DHT22;38243;53.212;6.574;2023-05-07T12:48:23;20.40;74.60
52295;DHT22;38243;53.212;6.574;2023-05-07T12:50:56;20.40;74.70
52295;DHT22;38243;53.212;6.574;2023-05-07T12:53:26;20.50;74.80
52295;DHT22;38243;53.212;6.574;2023-05-07T12:55:54;20.40;74.70
52295;DHT22;38243;53.212;6.574;2023-05-07T13:00:50;20.40;74.80
52295;DHT22;38243;53.212;6.574;2023-05-07T13:03:28;20.50;74.90
52295;DHT22;38243;53.212;6.574;2023-05-07T13:05:55;20.50;74.80
52295;DHT22;38243;53.212;6.574;2023-05-07T13:08:30;20.50;74.90
52295;DHT22;38243;53.212;6.574;2023-05-07T13:11:00;20.50;75.60
52295;DHT22;38243;53.212;6.574;2023-05-07T13:13:32;20.50;74.90
52295;DHT22;38243;53.212;6.574;2023-05-07T13:15:59;20.50;75.00
52295;DHT22;38243;53.212;6.574;2023-05-07T13:18:26;20.50;75.00
52295;DHT22;38243;53.212;6.574;2023-05-07T13:20:55;20.50;75.00
52295;DHT22;38243;53.212;6.574;2023-05-07T13:23:21;20.50;75.00
52295;DHT22;38243;53.212;6.574;2023-05-07T13:25:47;20.50;75.00
52295;DHT22;38243;53.212;6.574;2023-05-07T13:28:13;20.60;75.00
52295;DHT22;38243;53.212;6.574;2023-05-07T13:30:39;20.60;75.00
52295;DHT22;38243;53.212;6.574;2023-05-07T13:33:06;20.60;75.00
52295;DHT22;38243;53.212;6.574;2023-05-07T13:35:32;20.50;75.00
52295;DHT22;38243;53.212;6.574;2023-05-07T13:37:58;20.60;75.10
52295;DHT22;38243;53.212;6.574;2023-05-07T13:40:24;20.60;75.00
52295;DHT22;38243;53.212;6.574;2023-05-07T13:42:50;20.60;75.00
52295;DHT22;38243;53.212;6.574;2023-05-07T13:45:19;19.80;74.60
52295;DHT22;38243;53.212;6.574;2023-05-07T13:47:46;20.50;75.00
52295;DHT22;38243;53.212;6.574;2023-05-07T13:50:12;20.60;75.10
52295;DHT22;38243;53.212;6.574;2023-05-07T13:52:42;20.50;75.00
52295;DHT22;38243;53.212;6.574;2023-05-07T13:55:09;20.10;74.80
52295;DHT22;38243;53.212;6.574;2023-05-07T13:57:40;20.60;75.20
52295;DHT22;38243;53.212;6.574;2023-05-07T14:00:06;20.60;75.20
52295;DHT22;38243;53.212;6.574;2023-05-07T14:02:32;20.50;75.20
52295;DHT22;38243;53.212;6.574;2023-05-07T14:04:58;20.60;75.30
52295;DHT22;38243;53.212;6.574;2023-05-07T14:07:24;20.60;75.40
52295;DHT22;38243;53.212;6.574;2023-05-07T14:09:49;20.60;75.40
52295;DHT22;38243;53.212;6.574;2023-05-07T14:12:15;20.60;75.40
52295;DHT22;38243;53.212;6.574;2023-05-07T14:14:41;20.60;75.30
52295;DHT22;38243;53.212;6.574;2023-05-07T14:17:07;20.60;75.40
52295;DHT22;38243;53.212;6.574;2023-05-07T14:19:33;20.60;75.40
52295;DHT22;38243;53.212;6.574;2023-05-07T14:21:59;20.60;75.40
52295;DHT22;38243;53.212;6.574;2023-05-07T14:24:25;20.60;75.40
52295;DHT22;38243;53.212;6.574;2023-05-07T14:26:51;20.60;75.40
52295;DHT22;38243;53.212;6.574;2023-05-07T14:29:17;20.60;75.40
52295;DHT22;38243;53.212;6.574;2023-05-07T14:31:45;20.60;75.50
52295;DHT22;38243;53.212;6.574;2023-05-07T14:34:11;20.60;75.50
52295;DHT22;38243;53.212;6.574;2023-05-07T14:36:36;20.60;75.60
52295;DHT22;38243;53.212;6.574;2023-05-07T14:39:03;20.60;75.60
52295;DHT22;38243;53.212;6.574;2023-05-07T14:41:29;20.00;75.30
52295;DHT22;38243;53.212;6.574;2023-05-07T14:43:55;20.60;75.50
52295;DHT22;38243;53.212;6.574;2023-05-07T14:46:21;20.60;75.40
52295;DHT22;38243;53.212;6.574;2023-05-07T14:48:47;20.60;75.40
52295;DHT22;38243;53.212;6.574;2023-05-07T14:51:13;20.60;75.40
52295;DHT22;38243;53.212;6.574;2023-05-07T14:53:41;20.60;75.40
52295;DHT22;38243;53.212;6.574;2023-05-07T14:56:07;20.60;75.50
52295;DHT22;38243;53.212;6.574;2023-05-07T14:58:34;20.60;75.50
52295;DHT22;38243;53.212;6.574;2023-05-07T15:01:00;20.60;75.30
52295;DHT22;38243;53.212;6.574;2023-05-07T15:03:27;20.60;75.20
52295;DHT22;38243;53.212;6.574;2023-05-07T15:05:52;20.60;75.20
52295;DHT22;38243;53.212;6.574;2023-05-07T15:08:18;20.60;75.30
52295;DHT22;38243;53.212;6.574;2023-05-07T15:10:44;20.60;75.30
52295;DHT22;38243;53.212;6.574;2023-05-07T15:13:11;20.60;75.30
52295;DHT22;38243;53.212;6.574;2023-05-07T15:15:38;20.60;75.20
52295;DHT22;38243;53.212;6.574;2023-05-07T15:18:04;20.70;75.30
52295;DHT22;38243;53.212;6.574;2023-05-07T15:20:30;20.60;75.20
52295;DHT22;38243;53.212;6.574;2023-05-07T15:22:56;20.60;75.20
52295;DHT22;38243;53.212;6.574;2023-05-07T15:25:22;20.70;75.20
52295;DHT22;38243;53.212;6.574;2023-05-07T15:27:48;20.60;75.30
52295;DHT22;38243;53.212;6.574;2023-05-07T15:30:14;20.60;75.40
52295;DHT22;38243;53.212;6.574;2023-05-07T15:32:43;20.60;75.40
52295;DHT22;38243;53.212;6.574;2023-05-07T15:35:09;20.70;75.40
52295;DHT22;38243;53.212;6.574;2023-05-07T15:37:35;20.70;75.40
52295;DHT22;38243;53.212;6.574;2023-05-07T15:40:01;20.60;75.20
52295;DHT22;38243;53.212;6.574;2023-05-07T15:42:32;20.70;75.30
52295;DHT22;38243;53.212;6.574;2023-05-07T15:44:58;20.60;75.20
52295;DHT22;38243;53.212;6.574;2023-05-07T15:47:26;20.70;75.20
52295;DHT22;38243;53.212;6.574;2023-05-07T15:49:51;20.60;75.10
52295;DHT22;38243;53.212;6.574;2023-05-07T15:52:17;20.70;75.10
52295;DHT22;38243;53.212;6.574;2023-05-07T15:54:43;20.60;75.00
52295;DHT22;38243;53.212;6.574;2023-05-07T15:57:09;20.70;75.10
52295;DHT22;38243;53.212;6.574;2023-05-07T15:59:36;20.70;75.00
52295;DHT22;38243;53.212;6.574;2023-05-07T16:02:02;20.70;75.00